sensor_id;sensor_type;location;lat;lon;timestamp;P1;durP1;ratioP1;P2;durP2;ratioP2
41799;SDS011;27468;47.460;19.034;2023-06-14T00:02:11;3.35;;;2.17;;
41799;SDS011;27468;47.460;19.034;2023-06-14T00:04:37;3.22;;;1.85;;
41799;SDS011;27468;47.460;19.034;2023-06-14T00:07:04;4.70;;;2.03;;
41799;SDS011;27468;47.460;19.034;2023-06-14T00:09:33;3.95;;;2.20;;
41799;SDS011;27468;47.460;19.034;2023-06-14T00:11:58;3.92;;;2.00;;
41799;SDS011;27468;47.460;19.034;2023-06-14T00:14:24;2.92;;;1.95;;
41799;SDS011;27468;47.460;19.034;2023-06-14T00:16:49;4.20;;;2.20;;
41799;SDS011;27468;47.460;19.034;2023-06-14T00:19:17;3.88;;;2.40;;
41799;SDS011;27468;47.460;19.034;2023-06-14T00:21:42;3.63;;;2.22;;
41799;SDS011;27468;47.460;19.034;2023-06-14T00:24:08;4.28;;;2.50;;
41799;SDS011;27468;47.460;19.034;2023-06-14T00:26:33;3.30;;;2.00;;
41799;SDS011;27468;47.460;19.034;2023-06-14T00:28:59;3.92;;;2.10;;
41799;SDS011;27468;47.460;19.034;2023-06-14T00:31:24;3.80;;;2.55;;
41799;SDS011;27468;47.460;19.034;2023-06-14T00:33:50;4.25;;;2.17;;
41799;SDS011;27468;47.460;19.034;2023-06-14T00:36:15;3.22;;;2.10;;
41799;SDS011;27468;47.460;19.034;2023-06-14T00:38:41;4.70;;;2.50;;
41799;SDS011;27468;47.460;19.034;2023-06-14T00:41:06;5.13;;;2.53;;
41799;SDS011;27468;47.460;19.034;2023-06-14T00:43:32;4.45;;;2.28;;
41799;SDS011;27468;47.460;19.034;2023-06-14T00:45:59;5.70;;;2.47;;
41799;SDS011;27468;47.460;19.034;2023-06-14T00:48:25;6.13;;;2.75;;
41799;SDS011;27468;47.460;19.034;2023-06-14T00:50:50;4.55;;;2.47;;
41799;SDS011;27468;47.460;19.034;2023-06-14T00:53:17;4.32;;;2.58;;
41799;SDS011;27468;47.460;19.034;2023-06-14T00:55:45;4.93;;;2.78;;
41799;SDS011;27468;47.460;19.034;2023-06-14T00:58:11;6.95;;;2.50;;
41799;SDS011;27468;47.460;19.034;2023-06-14T01:00:37;5.28;;;2.60;;
41799;SDS011;27468;47.460;19.034;2023-06-14T01:03:02;4.78;;;3.15;;
41799;SDS011;27468;47.460;19.034;2023-06-14T01:05:28;7.72;;;2.90;;
41799;SDS011;27468;47.460;19.034;2023-06-14T01:10:56;7.53;;;3.13;;
41799;SDS011;27468;47.460;19.034;2023-06-14T01:15:58;5.63;;;2.90;;
41799;SDS011;27468;47.460;19.034;2023-06-14T01:18:24;5.80;;;2.75;;
41799;SDS011;27468;47.460;19.034;2023-06-14T01:20:51;5.78;;;3.50;;
41799;SDS011;27468;47.460;19.034;2023-06-14T01:23:18;5.80;;;2.85;;
41799;SDS011;27468;47.460;19.034;2023-06-14T01:25:44;6.88;;;3.28;;
41799;SDS011;27468;47.460;19.034;2023-06-14T01:28:12;7.50;;;3.38;;
41799;SDS011;27468;47.460;19.034;2023-06-14T01:30:43;7.20;;;3.53;;
41799;SDS011;27468;47.460;19.034;2023-06-14T01:33:14;5.65;;;3.35;;
41799;SDS011;27468;47.460;19.034;2023-06-14T01:35:43;5.32;;;2.80;;
41799;SDS011;27468;47.460;19.034;2023-06-14T01:38:10;5.65;;;2.80;;
41799;SDS011;27468;47.460;19.034;2023-06-14T01:40:37;6.22;;;3.47;;
41799;SDS011;27468;47.460;19.034;2023-06-14T01:43:04;6.65;;;3.38;;
41799;SDS011;27468;47.460;19.034;2023-06-14T01:45:31;6.70;;;3.45;;
41799;SDS011;27468;47.460;19.034;2023-06-14T01:47:57;8.10;;;3.75;;
41799;SDS011;27468;47.460;19.034;2023-06-14T01:50:22;6.93;;;3.40;;
41799;SDS011;27468;47.460;19.034;2023-06-14T01:52:48;9.48;;;3.60;;
41799;SDS011;27468;47.460;19.034;2023-06-14T01:55:13;8.13;;;3.55;;
41799;SDS011;27468;47.460;19.034;2023-06-14T01:57:39;8.25;;;4.45;;
41799;SDS011;27468;47.460;19.034;2023-06-14T02:00:05;8.98;;;3.83;;
41799;SDS011;27468;47.460;19.034;2023-06-14T02:02:37;8.60;;;4.25;;
41799;SDS011;27468;47.460;19.034;2023-06-14T02:05:03;8.88;;;3.97;;
41799;SDS011;27468;47.460;19.034;2023-06-14T02:07:29;6.90;;;3.83;;
41799;SDS011;27468;47.460;19.034;2023-06-14T02:09:54;8.05;;;4.03;;
41799;SDS011;27468;47.460;19.034;2023-06-14T02:12:20;8.30;;;4.40;;
41799;SDS011;27468;47.460;19.034;2023-06-14T02:14:45;8.27;;;3.92;;
41799;SDS011;27468;47.460;19.034;2023-06-14T02:17:10;9.10;;;3.78;;
41799;SDS011;27468;47.460;19.034;2023-06-14T02:19:36;8.73;;;4.15;;
41799;SDS011;27468;47.460;19.034;2023-06-14T02:22:02;8.27;;;3.85;;
41799;SDS011;27468;47.460;19.034;2023-06-14T02:24:27;8.32;;;4.50;;
41799;SDS011;27468;47.460;19.034;2023-06-14T02:26:53;11.07;;;4.15;;
41799;SDS011;27468;47.460;19.034;2023-06-14T02:29:18;9.23;;;4.72;;
41799;SDS011;27468;47.460;19.034;2023-06-14T02:31:43;10.60;;;4.78;;
41799;SDS011;27468;47.460;19.034;2023-06-14T02:34:11;9.38;;;4.88;;
41799;SDS011;27468;47.460;19.034;2023-06-14T02:36:37;11.82;;;4.65;;
41799;SDS011;27468;47.460;19.034;2023-06-14T02:39:09;9.30;;;4.28;;
41799;SDS011;27468;47.460;19.034;2023-06-14T02:41:35;9.80;;;4.38;;
41799;SDS011;27468;47.460;19.034;2023-06-14T02:44:01;10.02;;;3.90;;
41799;SDS011;27468;47.460;19.034;2023-06-14T02:46:26;11.65;;;4.78;;
41799;SDS011;27468;47.460;19.034;2023-06-14T02:48:52;8.63;;;4.88;;
41799;SDS011;27468;47.460;19.034;2023-06-14T02:51:17;8.95;;;4.55;;
41799;SDS011;27468;47.460;19.034;2023-06-14T02:53:42;9.35;;;5.00;;
41799;SDS011;27468;47.460;19.034;2023-06-14T02:56:08;11.07;;;4.90;;
41799;SDS011;27468;47.460;19.034;2023-06-14T02:58:36;10.65;;;4.30;;
41799;SDS011;27468;47.460;19.034;2023-06-14T03:01:02;8.50;;;4.18;;
41799;SDS011;27468;47.460;19.034;2023-06-14T03:03:28;9.20;;;4.25;;
41799;SDS011;27468;47.460;19.034;2023-06-14T03:05:53;8.18;;;4.20;;
41799;SDS011;27468;47.460;19.034;2023-06-14T03:08:19;7.88;;;3.78;;
41799;SDS011;27468;47.460;19.034;2023-06-14T03:10:45;8.10;;;3.53;;
41799;SDS011;27468;47.460;19.034;2023-06-14T03:13:12;6.15;;;3.80;;
41799;SDS011;27468;47.460;19.034;2023-06-14T03:15:38;7.68;;;3.53;;
41799;SDS011;27468;47.460;19.034;2023-06-14T03:18:03;9.35;;;3.72;;
41799;SDS011;27468;47.460;19.034;2023-06-14T03:20:29;7.18;;;3.80;;
41799;SDS011;27468;47.460;19.034;2023-06-14T03:22:58;7.10;;;3.90;;
41799;SDS011;27468;47.460;19.034;2023-06-14T03:25:25;8.77;;;3.85;;
41799;SDS011;27468;47.460;19.034;2023-06-14T03:27:51;7.05;;;3.92;;
41799;SDS011;27468;47.460;19.034;2023-06-14T03:30:16;8.43;;;3.67;;
41799;SDS011;27468;47.460;19.034;2023-06-14T03:32:42;8.20;;;3.60;;
41799;SDS011;27468;47.460;19.034;2023-06-14T03:35:07;6.80;;;3.50;;
41799;SDS011;27468;47.460;19.034;2023-06-14T03:37:33;7.75;;;3.50;;
41799;SDS011;27468;47.460;19.034;2023-06-14T03:39:59;9.57;;;3.70;;
41799;SDS011;27468;47.460;19.034;2023-06-14T03:42:25;6.53;;;3.35;;
41799;SDS011;27468;47.460;19.034;2023-06-14T03:44:51;7.80;;;3.70;;
41799;SDS011;27468;47.460;19.034;2023-06-14T03:47:16;8.32;;;3.95;;
41799;SDS011;27468;47.460;19.034;2023-06-14T03:49:42;11.00;;;4.57;;
41799;SDS011;27468;47.460;19.034;2023-06-14T03:52:07;7.18;;;3.97;;
41799;SDS011;27468;47.460;19.034;2023-06-14T03:54:32;8.55;;;4.13;;
41799;SDS011;27468;47.460;19.034;2023-06-14T03:56:58;7.43;;;3.67;;
41799;SDS011;27468;47.460;19.034;2023-06-14T03:59:24;6.40;;;3.50;;
41799;SDS011;27468;47.460;19.034;2023-06-14T04:01:51;7.85;;;3.92;;
41799;SDS011;27468;47.460;19.034;2023-06-14T04:04:16;8.48;;;3.67;;
41799;SDS011;27468;47.460;19.034;2023-06-14T04:06:42;8.45;;;4.25;;
41799;SDS011;27468;47.460;19.034;2023-06-14T04:09:08;7.32;;;3.83;;
41799;SDS011;27468;47.460;19.034;2023-06-14T04:11:33;8.82;;;3.80;;
41799;SDS011;27468;47.460;19.034;2023-06-14T04:13:59;8.23;;;4.00;;
41799;SDS011;27468;47.460;19.034;2023-06-14T04:16:25;6.20;;;3.35;;
41799;SDS011;27468;47.460;19.034;2023-06-14T04:18:51;9.27;;;4.38;;
41799;SDS011;27468;47.460;19.034;2023-06-14T04:21:17;7.15;;;3.85;;
41799;SDS011;27468;47.460;19.034;2023-06-14T04:23:43;8.50;;;4.38;;
41799;SDS011;27468;47.460;19.034;2023-06-14T04:26:09;5.28;;;3.25;;
41799;SDS011;27468;47.460;19.034;2023-06-14T04:28:35;7.82;;;3.90;;
41799;SDS011;27468;47.460;19.034;2023-06-14T04:31:06;6.18;;;3.50;;
41799;SDS011;27468;47.460;19.034;2023-06-14T04:33:34;6.20;;;3.20;;
41799;SDS011;27468;47.460;19.034;2023-06-14T04:36:11;6.30;;;3.38;;
41799;SDS011;27468;47.460;19.034;2023-06-14T04:38:38;7.10;;;3.60;;
41799;SDS011;27468;47.460;19.034;2023-06-14T04:41:04;5.95;;;3.78;;
41799;SDS011;27468;47.460;19.034;2023-06-14T04:43:29;6.00;;;3.33;;
41799;SDS011;27468;47.460;19.034;2023-06-14T04:45:56;6.40;;;3.83;;
41799;SDS011;27468;47.460;19.034;2023-06-14T04:48:22;6.50;;;3.47;;
41799;SDS011;27468;47.460;19.034;2023-06-14T04:50:48;8.02;;;4.00;;
41799;SDS011;27468;47.460;19.034;2023-06-14T04:53:17;5.88;;;3.55;;
41799;SDS011;27468;47.460;19.034;2023-06-14T04:55:46;7.05;;;3.70;;
41799;SDS011;27468;47.460;19.034;2023-06-14T04:58:12;6.60;;;3.63;;
41799;SDS011;27468;47.460;19.034;2023-06-14T05:00:38;7.43;;;3.90;;
41799;SDS011;27468;47.460;19.034;2023-06-14T05:03:03;6.50;;;3.40;;
41799;SDS011;27468;47.460;19.034;2023-06-14T05:05:30;5.78;;;3.17;;
41799;SDS011;27468;47.460;19.034;2023-06-14T05:07:56;6.03;;;3.70;;
41799;SDS011;27468;47.460;19.034;2023-06-14T05:10:21;6.45;;;4.05;;
41799;SDS011;27468;47.460;19.034;2023-06-14T05:12:47;5.63;;;3.75;;
41799;SDS011;27468;47.460;19.034;2023-06-14T05:15:13;4.50;;;3.00;;
41799;SDS011;27468;47.460;19.034;2023-06-14T05:17:38;7.72;;;3.65;;
41799;SDS011;27468;47.460;19.034;2023-06-14T05:20:05;5.63;;;3.10;;
41799;SDS011;27468;47.460;19.034;2023-06-14T05:22:31;4.55;;;3.03;;
41799;SDS011;27468;47.460;19.034;2023-06-14T05:24:57;6.70;;;4.15;;
41799;SDS011;27468;47.460;19.034;2023-06-14T05:27:22;5.03;;;3.40;;
41799;SDS011;27468;47.460;19.034;2023-06-14T05:29:49;5.85;;;3.17;;
41799;SDS011;27468;47.460;19.034;2023-06-14T05:32:15;5.63;;;3.65;;
41799;SDS011;27468;47.460;19.034;2023-06-14T05:34:41;5.75;;;3.60;;
41799;SDS011;27468;47.460;19.034;2023-06-14T05:37:07;6.28;;;3.65;;
41799;SDS011;27468;47.460;19.034;2023-06-14T05:39:32;4.50;;;3.00;;
41799;SDS011;27468;47.460;19.034;2023-06-14T05:41:57;5.40;;;3.20;;
41799;SDS011;27468;47.460;19.034;2023-06-14T05:44:23;4.85;;;3.25;;
41799;SDS011;27468;47.460;19.034;2023-06-14T05:46:48;6.10;;;3.42;;
41799;SDS011;27468;47.460;19.034;2023-06-14T05:49:14;6.10;;;3.40;;
41799;SDS011;27468;47.460;19.034;2023-06-14T05:51:39;5.78;;;3.35;;
41799;SDS011;27468;47.460;19.034;2023-06-14T05:54:04;6.38;;;3.47;;
41799;SDS011;27468;47.460;19.034;2023-06-14T05:56:30;5.80;;;3.33;;
41799;SDS011;27468;47.460;19.034;2023-06-14T05:58:55;7.03;;;3.50;;
41799;SDS011;27468;47.460;19.034;2023-06-14T06:01:20;5.43;;;3.47;;
41799;SDS011;27468;47.460;19.034;2023-06-14T06:03:46;8.05;;;4.00;;
41799;SDS011;27468;47.460;19.034;2023-06-14T06:06:12;7.72;;;3.83;;
41799;SDS011;27468;47.460;19.034;2023-06-14T06:08:38;5.70;;;3.33;;
41799;SDS011;27468;47.460;19.034;2023-06-14T06:11:04;5.45;;;3.08;;
41799;SDS011;27468;47.460;19.034;2023-06-14T06:13:29;6.78;;;3.50;;
41799;SDS011;27468;47.460;19.034;2023-06-14T06:15:55;10.93;;;3.88;;
41799;SDS011;27468;47.460;19.034;2023-06-14T06:18:21;6.45;;;3.95;;
41799;SDS011;27468;47.460;19.034;2023-06-14T06:20:46;5.95;;;3.30;;
41799;SDS011;27468;47.460;19.034;2023-06-14T06:23:12;8.95;;;3.38;;
41799;SDS011;27468;47.460;19.034;2023-06-14T06:25:37;7.68;;;3.65;;
41799;SDS011;27468;47.460;19.034;2023-06-14T06:28:03;5.93;;;2.88;;
41799;SDS011;27468;47.460;19.034;2023-06-14T06:30:28;6.18;;;3.45;;
41799;SDS011;27468;47.460;19.034;2023-06-14T06:32:54;5.78;;;3.05;;
41799;SDS011;27468;47.460;19.034;2023-06-14T06:35:20;5.80;;;3.30;;
41799;SDS011;27468;47.460;19.034;2023-06-14T06:37:46;6.60;;;3.50;;
41799;SDS011;27468;47.460;19.034;2023-06-14T06:40:11;4.82;;;3.22;;
41799;SDS011;27468;47.460;19.034;2023-06-14T06:42:37;5.38;;;2.90;;
41799;SDS011;27468;47.460;19.034;2023-06-14T06:45:03;5.30;;;2.47;;
41799;SDS011;27468;47.460;19.034;2023-06-14T06:47:30;5.63;;;3.00;;
41799;SDS011;27468;47.460;19.034;2023-06-14T06:49:56;5.32;;;3.03;;
41799;SDS011;27468;47.460;19.034;2023-06-14T06:52:21;7.10;;;3.25;;
41799;SDS011;27468;47.460;19.034;2023-06-14T06:54:46;5.18;;;2.95;;
41799;SDS011;27468;47.460;19.034;2023-06-14T06:57:12;8.07;;;3.67;;
41799;SDS011;27468;47.460;19.034;2023-06-14T06:59:37;7.13;;;3.72;;
41799;SDS011;27468;47.460;19.034;2023-06-14T07:02:03;5.50;;;3.20;;
41799;SDS011;27468;47.460;19.034;2023-06-14T07:04:29;5.18;;;2.90;;
41799;SDS011;27468;47.460;19.034;2023-06-14T07:06:54;5.53;;;3.20;;
41799;SDS011;27468;47.460;19.034;2023-06-14T07:09:20;4.57;;;2.58;;
41799;SDS011;27468;47.460;19.034;2023-06-14T07:11:46;5.22;;;3.15;;
41799;SDS011;27468;47.460;19.034;2023-06-14T07:14:12;5.05;;;3.10;;
41799;SDS011;27468;47.460;19.034;2023-06-14T07:16:38;4.97;;;2.97;;
41799;SDS011;27468;47.460;19.034;2023-06-14T07:19:03;5.03;;;2.92;;
41799;SDS011;27468;47.460;19.034;2023-06-14T07:21:29;4.63;;;3.00;;
41799;SDS011;27468;47.460;19.034;2023-06-14T07:23:55;4.80;;;3.05;;
41799;SDS011;27468;47.460;19.034;2023-06-14T07:26:23;4.90;;;2.75;;
41799;SDS011;27468;47.460;19.034;2023-06-14T07:28:49;6.65;;;2.40;;
41799;SDS011;27468;47.460;19.034;2023-06-14T07:31:15;8.32;;;2.97;;
41799;SDS011;27468;47.460;19.034;2023-06-14T07:33:43;4.28;;;2.70;;
41799;SDS011;27468;47.460;19.034;2023-06-14T07:36:08;4.22;;;2.60;;
41799;SDS011;27468;47.460;19.034;2023-06-14T07:38:35;5.85;;;3.17;;
41799;SDS011;27468;47.460;19.034;2023-06-14T07:41:01;6.28;;;3.28;;
41799;SDS011;27468;47.460;19.034;2023-06-14T07:43:27;5.85;;;3.30;;
41799;SDS011;27468;47.460;19.034;2023-06-14T07:45:52;5.30;;;2.92;;
41799;SDS011;27468;47.460;19.034;2023-06-14T07:48:18;4.95;;;2.75;;
41799;SDS011;27468;47.460;19.034;2023-06-14T07:50:43;5.15;;;2.75;;
41799;SDS011;27468;47.460;19.034;2023-06-14T07:53:09;4.93;;;2.83;;
41799;SDS011;27468;47.460;19.034;2023-06-14T07:55:34;5.03;;;2.67;;
41799;SDS011;27468;47.460;19.034;2023-06-14T07:58:02;5.40;;;2.80;;
41799;SDS011;27468;47.460;19.034;2023-06-14T08:00:28;6.20;;;2.90;;
41799;SDS011;27468;47.460;19.034;2023-06-14T08:02:53;5.95;;;2.92;;
41799;SDS011;27468;47.460;19.034;2023-06-14T08:05:23;4.55;;;2.65;;
41799;SDS011;27468;47.460;19.034;2023-06-14T08:07:49;5.57;;;2.65;;
41799;SDS011;27468;47.460;19.034;2023-06-14T08:10:15;5.60;;;2.78;;
41799;SDS011;27468;47.460;19.034;2023-06-14T08:12:40;4.05;;;2.60;;
41799;SDS011;27468;47.460;19.034;2023-06-14T08:15:06;4.47;;;2.40;;
41799;SDS011;27468;47.460;19.034;2023-06-14T08:17:32;5.20;;;3.00;;
41799;SDS011;27468;47.460;19.034;2023-06-14T08:19:57;5.22;;;2.97;;
41799;SDS011;27468;47.460;19.034;2023-06-14T08:22:23;6.10;;;2.85;;
41799;SDS011;27468;47.460;19.034;2023-06-14T08:24:53;5.30;;;2.53;;
41799;SDS011;27468;47.460;19.034;2023-06-14T08:27:19;6.40;;;3.22;;
41799;SDS011;27468;47.460;19.034;2023-06-14T08:29:45;3.92;;;2.42;;
41799;SDS011;27468;47.460;19.034;2023-06-14T08:32:11;4.50;;;2.95;;
41799;SDS011;27468;47.460;19.034;2023-06-14T08:34:37;7.05;;;3.67;;
41799;SDS011;27468;47.460;19.034;2023-06-14T08:37:02;7.88;;;3.28;;
41799;SDS011;27468;47.460;19.034;2023-06-14T08:39:28;4.70;;;2.70;;
41799;SDS011;27468;47.460;19.034;2023-06-14T08:41:53;3.75;;;2.20;;
41799;SDS011;27468;47.460;19.034;2023-06-14T08:44:20;5.03;;;2.80;;
41799;SDS011;27468;47.460;19.034;2023-06-14T08:46:47;4.38;;;2.63;;
41799;SDS011;27468;47.460;19.034;2023-06-14T08:49:13;5.63;;;3.10;;
41799;SDS011;27468;47.460;19.034;2023-06-14T08:51:41;5.30;;;3.30;;
41799;SDS011;27468;47.460;19.034;2023-06-14T08:54:08;5.63;;;3.17;;
41799;SDS011;27468;47.460;19.034;2023-06-14T08:56:37;4.95;;;2.72;;
41799;SDS011;27468;47.460;19.034;2023-06-14T08:59:03;5.55;;;2.78;;
41799;SDS011;27468;47.460;19.034;2023-06-14T09:01:32;6.40;;;2.58;;
41799;SDS011;27468;47.460;19.034;2023-06-14T09:03:59;3.85;;;2.05;;
41799;SDS011;27468;47.460;19.034;2023-06-14T09:06:25;6.70;;;2.70;;
41799;SDS011;27468;47.460;19.034;2023-06-14T09:08:50;4.45;;;2.25;;
41799;SDS011;27468;47.460;19.034;2023-06-14T09:11:17;5.95;;;2.53;;
41799;SDS011;27468;47.460;19.034;2023-06-14T09:13:44;4.13;;;2.50;;
41799;SDS011;27468;47.460;19.034;2023-06-14T09:16:11;6.13;;;2.53;;
41799;SDS011;27468;47.460;19.034;2023-06-14T09:18:41;5.15;;;2.88;;
41799;SDS011;27468;47.460;19.034;2023-06-14T09:21:12;3.35;;;2.60;;
41799;SDS011;27468;47.460;19.034;2023-06-14T09:23:39;5.05;;;2.28;;
41799;SDS011;27468;47.460;19.034;2023-06-14T09:26:12;4.18;;;2.30;;
41799;SDS011;27468;47.460;19.034;2023-06-14T09:28:42;3.45;;;2.30;;
41799;SDS011;27468;47.460;19.034;2023-06-14T09:31:09;6.50;;;2.63;;
41799;SDS011;27468;47.460;19.034;2023-06-14T09:33:36;4.40;;;2.47;;
41799;SDS011;27468;47.460;19.034;2023-06-14T09:36:02;3.75;;;2.10;;
41799;SDS011;27468;47.460;19.034;2023-06-14T09:38:28;5.63;;;2.60;;
41799;SDS011;27468;47.460;19.034;2023-06-14T09:40:56;4.03;;;2.30;;
41799;SDS011;27468;47.460;19.034;2023-06-14T09:43:22;4.50;;;2.30;;
41799;SDS011;27468;47.460;19.034;2023-06-14T09:45:48;2.65;;;2.20;;
41799;SDS011;27468;47.460;19.034;2023-06-14T09:48:15;4.63;;;2.50;;
41799;SDS011;27468;47.460;19.034;2023-06-14T09:50:44;4.70;;;2.50;;
41799;SDS011;27468;47.460;19.034;2023-06-14T09:53:12;4.03;;;2.42;;
41799;SDS011;27468;47.460;19.034;2023-06-14T09:55:39;5.10;;;2.60;;
41799;SDS011;27468;47.460;19.034;2023-06-14T09:58:06;3.67;;;2.13;;
41799;SDS011;27468;47.460;19.034;2023-06-14T10:00:33;3.10;;;1.92;;
41799;SDS011;27468;47.460;19.034;2023-06-14T10:03:08;3.90;;;2.20;;
41799;SDS011;27468;47.460;19.034;2023-06-14T10:05:37;4.57;;;2.50;;
41799;SDS011;27468;47.460;19.034;2023-06-14T10:08:08;4.85;;;2.35;;
41799;SDS011;27468;47.460;19.034;2023-06-14T10:10:35;3.40;;;2.00;;
41799;SDS011;27468;47.460;19.034;2023-06-14T10:13:03;3.20;;;2.30;;
41799;SDS011;27468;47.460;19.034;2023-06-14T10:15:48;3.28;;;2.67;;
41799;SDS011;27468;47.460;19.034;2023-06-14T10:18:40;4.45;;;2.50;;
41799;SDS011;27468;47.460;19.034;2023-06-14T10:23:59;4.15;;;2.72;;
41799;SDS011;27468;47.460;19.034;2023-06-14T10:26:30;4.97;;;2.38;;
41799;SDS011;27468;47.460;19.034;2023-06-14T10:28:59;3.72;;;2.15;;
41799;SDS011;27468;47.460;19.034;2023-06-14T10:31:43;4.55;;;1.90;;
41799;SDS011;27468;47.460;19.034;2023-06-14T10:34:31;4.03;;;2.47;;
41799;SDS011;27468;47.460;19.034;2023-06-14T10:37:03;4.50;;;2.58;;
41799;SDS011;27468;47.460;19.034;2023-06-14T10:39:30;3.83;;;2.00;;
41799;SDS011;27468;47.460;19.034;2023-06-14T10:41:56;2.80;;;1.70;;
41799;SDS011;27468;47.460;19.034;2023-06-14T10:46:48;2.05;;;1.65;;
41799;SDS011;27468;47.460;19.034;2023-06-14T10:49:35;2.90;;;1.60;;
41799;SDS011;27468;47.460;19.034;2023-06-14T10:52:07;3.10;;;1.92;;
41799;SDS011;27468;47.460;19.034;2023-06-14T10:55:03;6.43;;;2.03;;
41799;SDS011;27468;47.460;19.034;2023-06-14T10:57:29;2.45;;;1.98;;
41799;SDS011;27468;47.460;19.034;2023-06-14T10:59:56;4.03;;;1.90;;
41799;SDS011;27468;47.460;19.034;2023-06-14T11:11:15;1.90;;;1.67;;
41799;SDS011;27468;47.460;19.034;2023-06-14T11:13:44;3.47;;;1.60;;
41799;SDS011;27468;47.460;19.034;2023-06-14T11:16:11;3.47;;;1.60;;
41799;SDS011;27468;47.460;19.034;2023-06-14T11:18:41;1.88;;;1.67;;
41799;SDS011;27468;47.460;19.034;2023-06-14T11:21:06;2.20;;;1.50;;
41799;SDS011;27468;47.460;19.034;2023-06-14T11:23:33;2.88;;;1.60;;
41799;SDS011;27468;47.460;19.034;2023-06-14T11:25:59;2.65;;;1.80;;
41799;SDS011;27468;47.460;19.034;2023-06-14T11:28:24;1.73;;;1.55;;
41799;SDS011;27468;47.460;19.034;2023-06-14T11:31:01;2.80;;;1.77;;
41799;SDS011;27468;47.460;19.034;2023-06-14T11:33:28;3.72;;;2.17;;
41799;SDS011;27468;47.460;19.034;2023-06-14T11:35:53;2.80;;;1.88;;
41799;SDS011;27468;47.460;19.034;2023-06-14T11:38:18;2.63;;;1.75;;
41799;SDS011;27468;47.460;19.034;2023-06-14T11:40:44;3.30;;;1.40;;
41799;SDS011;27468;47.460;19.034;2023-06-14T11:43:09;3.10;;;1.80;;
41799;SDS011;27468;47.460;19.034;2023-06-14T11:45:35;2.47;;;1.80;;
41799;SDS011;27468;47.460;19.034;2023-06-14T11:48:00;3.60;;;2.22;;
41799;SDS011;27468;47.460;19.034;2023-06-14T11:50:26;3.13;;;1.67;;
41799;SDS011;27468;47.460;19.034;2023-06-14T11:52:56;3.35;;;2.00;;
41799;SDS011;27468;47.460;19.034;2023-06-14T11:55:22;2.45;;;1.50;;
41799;SDS011;27468;47.460;19.034;2023-06-14T11:57:49;3.22;;;1.98;;
41799;SDS011;27468;47.460;19.034;2023-06-14T12:00:15;6.15;;;1.85;;
41799;SDS011;27468;47.460;19.034;2023-06-14T12:02:41;3.33;;;1.70;;
41799;SDS011;27468;47.460;19.034;2023-06-14T12:05:07;3.05;;;1.70;;
41799;SDS011;27468;47.460;19.034;2023-06-14T12:07:36;2.63;;;1.70;;
41799;SDS011;27468;47.460;19.034;2023-06-14T12:12:28;2.28;;;1.48;;
41799;SDS011;27468;47.460;19.034;2023-06-14T12:14:55;2.15;;;1.70;;
41799;SDS011;27468;47.460;19.034;2023-06-14T12:17:23;1.98;;;1.73;;
41799;SDS011;27468;47.460;19.034;2023-06-14T12:19:49;3.58;;;2.45;;
41799;SDS011;27468;47.460;19.034;2023-06-14T12:22:15;2.97;;;1.80;;
41799;SDS011;27468;47.460;19.034;2023-06-14T12:24:45;2.33;;;1.92;;
41799;SDS011;27468;47.460;19.034;2023-06-14T12:27:11;2.40;;;1.50;;
41799;SDS011;27468;47.460;19.034;2023-06-14T12:29:40;3.47;;;2.08;;
41799;SDS011;27468;47.460;19.034;2023-06-14T12:32:08;3.72;;;2.08;;
41799;SDS011;27468;47.460;19.034;2023-06-14T12:34:34;2.50;;;1.65;;
41799;SDS011;27468;47.460;19.034;2023-06-14T12:37:00;2.92;;;2.10;;
41799;SDS011;27468;47.460;19.034;2023-06-14T12:39:26;2.88;;;1.60;;
41799;SDS011;27468;47.460;19.034;2023-06-14T12:41:52;2.75;;;1.58;;
41799;SDS011;27468;47.460;19.034;2023-06-14T12:44:18;3.28;;;1.90;;
41799;SDS011;27468;47.460;19.034;2023-06-14T12:46:43;3.05;;;1.67;;
41799;SDS011;27468;47.460;19.034;2023-06-14T12:49:09;2.45;;;1.75;;
41799;SDS011;27468;47.460;19.034;2023-06-14T12:51:36;2.80;;;1.63;;
41799;SDS011;27468;47.460;19.034;2023-06-14T12:54:02;3.15;;;1.75;;
41799;SDS011;27468;47.460;19.034;2023-06-14T12:56:28;2.50;;;1.60;;
41799;SDS011;27468;47.460;19.034;2023-06-14T12:58:53;2.05;;;1.85;;
41799;SDS011;27468;47.460;19.034;2023-06-14T13:01:19;2.30;;;1.60;;
41799;SDS011;27468;47.460;19.034;2023-06-14T13:03:45;2.60;;;1.60;;
41799;SDS011;27468;47.460;19.034;2023-06-14T13:06:11;1.67;;;1.45;;
41799;SDS011;27468;47.460;19.034;2023-06-14T13:08:37;2.20;;;1.70;;
41799;SDS011;27468;47.460;19.034;2023-06-14T13:11:02;2.95;;;1.60;;
41799;SDS011;27468;47.460;19.034;2023-06-14T13:13:27;3.53;;;2.00;;
41799;SDS011;27468;47.460;19.034;2023-06-14T13:15:53;3.65;;;1.70;;
41799;SDS011;27468;47.460;19.034;2023-06-14T13:18:18;2.70;;;1.60;;
41799;SDS011;27468;47.460;19.034;2023-06-14T13:20:45;2.78;;;1.88;;
41799;SDS011;27468;47.460;19.034;2023-06-14T13:23:11;2.55;;;1.83;;
41799;SDS011;27468;47.460;19.034;2023-06-14T13:25:37;4.53;;;2.33;;
41799;SDS011;27468;47.460;19.034;2023-06-14T13:28:05;4.07;;;2.00;;
41799;SDS011;27468;47.460;19.034;2023-06-14T13:30:31;2.83;;;1.90;;
41799;SDS011;27468;47.460;19.034;2023-06-14T13:32:58;2.38;;;1.80;;
41799;SDS011;27468;47.460;19.034;2023-06-14T13:35:23;3.42;;;2.10;;
41799;SDS011;27468;47.460;19.034;2023-06-14T13:37:49;1.95;;;1.70;;
41799;SDS011;27468;47.460;19.034;2023-06-14T13:40:15;3.33;;;1.90;;
41799;SDS011;27468;47.460;19.034;2023-06-14T13:42:41;5.88;;;2.10;;
41799;SDS011;27468;47.460;19.034;2023-06-14T13:45:07;3.00;;;1.90;;
41799;SDS011;27468;47.460;19.034;2023-06-14T13:47:33;3.45;;;2.05;;
41799;SDS011;27468;47.460;19.034;2023-06-14T13:49:59;2.35;;;1.80;;
41799;SDS011;27468;47.460;19.034;2023-06-14T13:52:25;6.28;;;2.30;;
41799;SDS011;27468;47.460;19.034;2023-06-14T13:54:51;3.38;;;1.70;;
41799;SDS011;27468;47.460;19.034;2023-06-14T13:57:16;3.15;;;1.90;;
41799;SDS011;27468;47.460;19.034;2023-06-14T13:59:42;2.80;;;1.83;;
41799;SDS011;27468;47.460;19.034;2023-06-14T14:02:09;3.63;;;2.22;;
41799;SDS011;27468;47.460;19.034;2023-06-14T14:04:35;2.75;;;1.55;;
41799;SDS011;27468;47.460;19.034;2023-06-14T14:07:01;3.00;;;1.90;;
41799;SDS011;27468;47.460;19.034;2023-06-14T14:09:27;2.10;;;1.35;;
41799;SDS011;27468;47.460;19.034;2023-06-14T14:11:53;2.85;;;1.90;;
41799;SDS011;27468;47.460;19.034;2023-06-14T14:14:18;2.60;;;1.77;;
41799;SDS011;27468;47.460;19.034;2023-06-14T14:16:43;2.97;;;2.08;;
41799;SDS011;27468;47.460;19.034;2023-06-14T14:19:09;2.70;;;2.03;;
41799;SDS011;27468;47.460;19.034;2023-06-14T14:21:35;3.30;;;1.85;;
41799;SDS011;27468;47.460;19.034;2023-06-14T14:24:00;3.03;;;1.90;;
41799;SDS011;27468;47.460;19.034;2023-06-14T14:26:26;2.80;;;1.80;;
41799;SDS011;27468;47.460;19.034;2023-06-14T14:28:51;2.40;;;1.83;;
41799;SDS011;27468;47.460;19.034;2023-06-14T14:31:17;3.22;;;1.85;;
41799;SDS011;27468;47.460;19.034;2023-06-14T14:33:43;2.88;;;2.10;;
41799;SDS011;27468;47.460;19.034;2023-06-14T14:36:08;2.88;;;1.80;;
41799;SDS011;27468;47.460;19.034;2023-06-14T14:38:34;2.95;;;1.77;;
41799;SDS011;27468;47.460;19.034;2023-06-14T14:40:59;3.15;;;1.65;;
41799;SDS011;27468;47.460;19.034;2023-06-14T14:43:25;3.08;;;1.60;;
41799;SDS011;27468;47.460;19.034;2023-06-14T14:45:50;2.58;;;1.95;;
41799;SDS011;27468;47.460;19.034;2023-06-14T14:48:16;2.53;;;1.85;;
41799;SDS011;27468;47.460;19.034;2023-06-14T14:50:41;2.95;;;1.60;;
41799;SDS011;27468;47.460;19.034;2023-06-14T14:53:06;2.45;;;1.83;;